METAR Data
IDs: Format: Raw Decoded Include TAF

Data at: 1943 UTC 19 Aug 2019

METAR for:KSPB (Scappoose Ind Airpar, OR, US)
Text:KSPB 191853Z AUTO 09003KT 10SM OVC034 21/12 A3000 RMK AO2 SLP160 T02060122
Temperature: 20.6°C ( 69°F)
Dewpoint: 12.2°C ( 54°F) [RH = 59%]
Pressure (altimeter):30.00 inches Hg (1016.0 mb) [Sea level pressure: 1016.0 mb]
Winds:from the E (90 degrees) at 3 MPH (3 knots; 1.5 m/s)
Visibility:10 or more sm (16+ km)
Ceiling:3400 feet AGL
Clouds: overcast cloud deck at 3400 feet AGL
QC Flag:automated observation with no human augmentation